Time;durP1;ratioP1;P1;durP2;ratioP2;P2;SDS_P1;SDS_P2;PMS_P1;PMS_P2;Temp;Humidity;BMP_temperature;BMP_pressure;BME280_temperature;BME280_humidity;BME280_pressure;Samples;Min_cycle;Max_cycle;Signal;HPM_P1;HPM_P2
2021/05/25 00:00:25;;;;;;;8.23;5.80;;;9.80;97.40;;;;;;4985596;28;20050;-73
2021/05/25 00:02:52;;;;;;;6.70;4.93;;;9.80;97.40;;;;;;5002818;28;20080;-73
2021/05/25 00:05:30;;;;;;;6.68;4.07;;;9.80;97.40;;;;;;5019553;28;20049;-74
2021/05/25 00:07:59;;;;;;;4.85;4.18;;;9.80;97.40;;;;;;4987289;28;20038;-75
2021/05/25 00:10:30;;;;;;;5.53;3.90;;;9.70;97.30;;;;;;4989962;28;20496;-74
2021/05/25 00:12:56;;;;;;;6.30;3.65;;;9.70;97.40;;;;;;4990213;28;20445;-74
2021/05/25 00:15:24;;;;;;;4.30;3.33;;;9.70;97.40;;;;;;5007425;28;20038;-74
2021/05/25 00:17:51;;;;;;;3.80;3.05;;;9.70;97.40;;;;;;5004417;28;20065;-74
2021/05/25 00:20:19;;;;;;;4.80;2.92;;;9.60;97.40;;;;;;5001560;28;20038;-74
2021/05/25 00:22:46;;;;;;;4.82;3.10;;;9.60;97.50;;;;;;5005984;28;20037;-74
2021/05/25 00:25:13;;;;;;;3.88;2.70;;;9.60;97.50;;;;;;4991535;28;20038;-74
2021/05/25 00:27:40;;;;;;;4.15;2.70;;;9.60;97.50;;;;;;4977793;28;20452;-75
2021/05/25 00:30:07;;;;;;;5.45;3.00;;;9.50;97.50;;;;;;4976932;28;20141;-74
2021/05/25 00:32:34;;;;;;;5.55;3.50;;;9.50;97.50;;;;;;5010947;28;20519;-75
2021/05/25 00:35:00;;;;;;;4.38;3.22;;;9.50;97.60;;;;;;4969313;28;20041;-74
2021/05/25 00:37:26;;;;;;;5.53;3.65;;;9.50;97.60;;;;;;4970449;28;20054;-75
2021/05/25 00:39:52;;;;;;;7.53;4.45;;;9.50;97.70;;;;;;5002600;28;20045;-74
2021/05/25 00:42:18;;;;;;;5.65;3.85;;;9.50;97.70;;;;;;4987038;28;20113;-74
2021/05/25 00:44:44;;;;;;;7.07;4.90;;;9.50;97.80;;;;;;4987927;28;20165;-74
2021/05/25 00:47:10;;;;;;;7.30;4.50;;;9.50;97.80;;;;;;5008308;28;20137;-75
2021/05/25 00:49:36;;;;;;;8.93;5.50;;;9.50;97.90;;;;;;4967068;28;20453;-74
2021/05/25 00:52:02;;;;;;;7.85;5.00;;;9.40;97.80;;;;;;4992736;28;20038;-74
2021/05/25 00:54:28;;;;;;;6.47;5.18;;;9.40;97.90;;;;;;4983472;28;20483;-75
2021/05/25 00:56:56;;;;;;;7.60;5.00;;;9.40;97.90;;;;;;5003974;28;20057;-75
2021/05/25 00:59:25;;;;;;;7.43;5.63;;;9.50;98.00;;;;;;4998817;28;20507;-75
2021/05/25 01:01:51;;;;;;;6.90;5.63;;;9.50;98.00;;;;;;5001761;28;20076;-75
2021/05/25 01:04:20;;;;;;;9.57;6.28;;;9.40;98.00;;;;;;4957358;28;20054;-75
2021/05/25 01:06:46;;;;;;;7.20;5.68;;;9.40;98.10;;;;;;4989939;28;20045;-75
2021/05/25 01:09:16;;;;;;;5.78;5.07;;;9.40;98.10;;;;;;4977299;28;20692;-74
2021/05/25 01:11:46;;;;;;;8.93;6.67;;;9.40;98.10;;;;;;4970547;28;20067;-75
2021/05/25 01:14:12;;;;;;;7.43;6.57;;;9.30;98.30;;;;;;4984097;28;20387;-75
2021/05/25 01:16:38;;;;;;;8.90;6.85;;;9.40;98.20;;;;;;4983803;28;20061;-75
2021/05/25 01:19:04;;;;;;;9.10;7.28;;;9.40;98.20;;;;;;4986072;28;20072;-75
2021/05/25 01:21:34;;;;;;;8.18;6.43;;;9.40;98.20;;;;;;4991272;28;20485;-75
2021/05/25 01:24:00;;;;;;;9.98;7.03;;;9.40;98.20;;;;;;4999895;28;20125;-75
2021/05/25 01:26:32;;;;;;;9.50;7.82;;;9.40;98.30;;;;;;4999763;28;20117;-75
2021/05/25 01:28:58;;;;;;;10.38;8.52;;;9.40;98.30;;;;;;4995990;28;20112;-74
2021/05/25 01:31:24;;;;;;;12.93;9.10;;;9.40;98.40;;;;;;4981254;28;20665;-75
2021/05/25 01:33:50;;;;;;;10.07;8.00;;;9.40;98.40;;;;;;5003310;28;20045;-80
2021/05/25 01:36:16;;;;;;;11.68;9.15;;;9.40;98.40;;;;;;5010457;28;20045;-81
2021/05/25 01:38:42;;;;;;;12.18;9.02;;;9.40;98.50;;;;;;4984314;28;20112;-75
2021/05/25 01:41:09;;;;;;;11.90;9.00;;;9.40;98.50;;;;;;4974195;28;20049;-75
2021/05/25 01:43:37;;;;;;;12.70;9.70;;;9.40;98.50;;;;;;4982240;28;20100;-75
2021/05/25 01:46:04;;;;;;;13.82;10.80;;;9.40;98.50;;;;;;5000302;28;20137;-75
2021/05/25 01:48:30;;;;;;;10.57;9.18;;;9.40;98.60;;;;;;5002618;28;20034;-75
2021/05/25 01:50:56;;;;;;;15.85;10.50;;;9.40;98.50;;;;;;4973711;28;20041;-76
2021/05/25 01:53:26;;;;;;;12.05;8.95;;;9.40;98.50;;;;;;4966984;28;20074;-75
2021/05/25 01:55:54;;;;;;;14.10;9.15;;;9.40;98.60;;;;;;5009426;28;20049;-75
2021/05/25 01:58:26;;;;;;;13.20;10.02;;;9.40;98.60;;;;;;4980031;28;20108;-75
2021/05/25 02:00:55;;;;;;;14.40;9.98;;;9.40;98.60;;;;;;4985144;28;20062;-81
2021/05/25 02:03:21;;;;;;;13.18;10.27;;;9.40;98.60;;;;;;4985415;28;20096;-82
2021/05/25 02:05:48;;;;;;;17.90;12.10;;;9.40;98.60;;;;;;5000891;28;20045;-81
2021/05/25 02:08:15;;;;;;;17.20;12.00;;;9.40;98.60;;;;;;5006759;28;20040;-81
2021/05/25 02:10:46;;;;;;;17.45;11.70;;;9.40;98.70;;;;;;5008801;28;20034;-81
2021/05/25 02:13:21;;;;;;;19.40;13.00;;;9.40;98.70;;;;;;4994311;28;20041;-81
2021/05/25 02:15:49;;;;;;;19.42;13.68;;;9.40;98.70;;;;;;4988830;28;20038;-82
2021/05/25 02:18:17;;;;;;;17.65;12.70;;;9.40;98.70;;;;;;4974490;28;20412;-81
2021/05/25 02:20:45;;;;;;;21.77;13.23;;;9.40;98.70;;;;;;5005512;28;20053;-75
2021/05/25 02:23:12;;;;;;;18.58;13.90;;;9.40;98.70;;;;;;5008703;28;20500;-75
2021/05/25 02:25:38;;;;;;;17.98;13.48;;;9.50;98.80;;;;;;5004457;28;20049;-75
2021/05/25 02:28:05;;;;;;;20.58;14.70;;;9.40;98.70;;;;;;5008599;28;20143;-75
2021/05/25 02:30:33;;;;;;;24.27;15.50;;;9.50;98.80;;;;;;4977409;28;20114;-80
2021/05/25 02:33:00;;;;;;;25.05;15.75;;;9.50;98.80;;;;;;4985060;28;20041;-80
2021/05/25 02:35:26;;;;;;;22.48;14.60;;;9.50;98.80;;;;;;4988835;28;20029;-80
2021/05/25 02:37:53;;;;;;;18.13;13.73;;;9.50;98.90;;;;;;4974633;28;20168;-81
2021/05/25 02:40:19;;;;;;;22.75;16.38;;;9.50;98.80;;;;;;5020501;28;20033;-81
2021/05/25 02:42:44;;;;;;;22.90;14.68;;;9.50;98.90;;;;;;5023013;28;20048;-80
2021/05/25 02:45:13;;;;;;;24.30;16.70;;;9.40;98.90;;;;;;4992975;28;20033;-80
2021/05/25 02:47:42;;;;;;;21.67;15.50;;;9.50;98.90;;;;;;5003675;28;20131;-80
2021/05/25 02:50:09;;;;;;;29.38;16.58;;;9.50;99.00;;;;;;5003353;28;20089;-81
2021/05/25 02:52:42;;;;;;;25.65;16.73;;;9.40;99.00;;;;;;4997155;28;20045;-80
2021/05/25 02:55:13;;;;;;;23.40;16.65;;;9.40;99.00;;;;;;4993827;28;20064;-80
2021/05/25 02:57:42;;;;;;;24.88;17.05;;;9.50;99.00;;;;;;4986925;28;20493;-81
2021/05/25 03:00:11;;;;;;;29.80;18.20;;;9.50;99.00;;;;;;4984003;28;20054;-79
2021/05/25 03:02:37;;;;;;;26.00;18.02;;;9.50;99.00;;;;;;5000654;28;20049;-80
2021/05/25 03:05:08;;;;;;;21.92;15.15;;;9.50;98.90;;;;;;4989245;28;20411;-82
2021/05/25 03:07:34;;;;;;;13.30;8.20;;;9.50;98.90;;;;;;5001527;28;20045;-80
2021/05/25 03:10:00;;;;;;;7.50;4.30;;;9.40;98.70;;;;;;4983447;28;20214;-82
2021/05/25 03:12:26;;;;;;;6.80;3.38;;;9.40;98.50;;;;;;5005148;28;20252;-80
2021/05/25 03:14:52;;;;;;;5.80;2.65;;;9.30;98.30;;;;;;4990831;28;20092;-79
2021/05/25 03:17:22;;;;;;;3.55;1.88;;;9.20;98.20;;;;;;4994692;28;20104;-80
2021/05/25 03:19:48;;;;;;;4.27;2.00;;;9.10;98.20;;;;;;4996350;28;20029;-81
2021/05/25 03:22:14;;;;;;;5.60;2.22;;;9.00;98.20;;;;;;4993494;28;20125;-81
2021/05/25 03:24:40;;;;;;;7.22;2.33;;;9.00;98.30;;;;;;4979095;28;20121;-80
2021/05/25 03:27:06;;;;;;;2.70;1.80;;;9.00;98.30;;;;;;5009693;28;20136;-80
2021/05/25 03:29:32;;;;;;;6.18;2.30;;;8.90;98.30;;;;;;4992235;28;20046;-80
2021/05/25 03:32:00;;;;;;;6.47;2.23;;;8.90;98.40;;;;;;5010420;28;20057;-80
2021/05/25 03:34:27;;;;;;;4.90;2.17;;;8.90;98.40;;;;;;4971481;28;20034;-80
2021/05/25 03:36:53;;;;;;;6.10;2.30;;;8.90;98.40;;;;;;5004922;28;20046;-80
2021/05/25 03:39:19;;;;;;;4.00;2.17;;;8.80;98.40;;;;;;4997001;28;20152;-80
2021/05/25 03:41:45;;;;;;;6.35;2.28;;;8.80;98.40;;;;;;4975699;28;20045;-80
2021/05/25 03:44:13;;;;;;;5.63;2.10;;;8.80;98.40;;;;;;5024517;28;20042;-80
2021/05/25 03:46:43;;;;;;;4.40;2.03;;;8.80;98.40;;;;;;5018397;28;20046;-80
2021/05/25 03:49:10;;;;;;;4.68;1.90;;;8.80;98.40;;;;;;4995521;28;20029;-79
2021/05/25 03:51:36;;;;;;;3.65;1.70;;;8.80;98.50;;;;;;5022166;28;20037;-80
2021/05/25 03:54:10;;;;;;;3.28;1.50;;;8.70;98.40;;;;;;5005834;28;20038;-80
2021/05/25 03:56:48;;;;;;;5.40;2.00;;;8.80;98.50;;;;;;5015699;28;20428;-79
2021/05/25 03:59:14;;;;;;;6.70;2.40;;;8.70;98.40;;;;;;5009162;28;20054;-79
2021/05/25 04:01:40;;;;;;;5.97;2.30;;;8.80;98.50;;;;;;4996770;28;20121;-80
2021/05/25 04:04:07;;;;;;;4.80;2.50;;;8.70;98.50;;;;;;4979881;28;20042;-80
2021/05/25 04:06:33;;;;;;;5.20;2.40;;;8.70;98.50;;;;;;5008449;28;20396;-80
2021/05/25 04:08:59;;;;;;;4.40;1.80;;;8.70;98.50;;;;;;4996532;28;20037;-80
2021/05/25 04:11:24;;;;;;;4.68;2.60;;;8.70;98.50;;;;;;5027419;28;20061;-74
2021/05/25 04:13:50;;;;;;;4.97;2.30;;;8.70;98.50;;;;;;4990540;28;20549;-74
2021/05/25 04:16:16;;;;;;;5.77;2.30;;;8.80;98.50;;;;;;5004340;28;20492;-74
2021/05/25 04:18:42;;;;;;;7.20;2.13;;;8.70;98.50;;;;;;5007140;28;20038;-74
2021/05/25 04:21:09;;;;;;;3.92;1.80;;;8.70;98.50;;;;;;5005954;28;20052;-74
2021/05/25 04:23:35;;;;;;;3.92;1.65;;;8.70;98.50;;;;;;5005916;28;20041;-74
2021/05/25 04:26:02;;;;;;;4.47;1.63;;;8.70;98.40;;;;;;4988398;28;20052;-74
2021/05/25 04:28:31;;;;;;;6.18;1.75;;;8.70;98.40;;;;;;4956714;28;20520;-74
2021/05/25 04:31:00;;;;;;;2.75;1.70;;;8.70;98.40;;;;;;5005649;28;20038;-74
2021/05/25 04:33:26;;;;;;;4.03;2.30;;;8.60;98.40;;;;;;5004350;28;20039;-74
2021/05/25 04:35:52;;;;;;;5.53;2.47;;;8.60;98.40;;;;;;5023811;28;20045;-74
2021/05/25 04:38:18;;;;;;;5.77;2.20;;;8.60;98.40;;;;;;5008541;28;20261;-74
2021/05/25 04:40:45;;;;;;;3.88;2.40;;;8.60;98.50;;;;;;4999060;28;20096;-74
2021/05/25 04:43:11;;;;;;;9.77;3.08;;;8.60;98.90;;;;;;5004652;28;20046;-74
2021/05/25 04:45:39;;;;;;;7.60;2.80;;;8.60;98.60;;;;;;5009425;28;20042;-74
2021/05/25 04:48:06;;;;;;;3.73;2.30;;;8.60;98.70;;;;;;4972227;28;20044;-73
2021/05/25 04:50:36;;;;;;;4.77;2.00;;;8.70;98.70;;;;;;5008757;28;20124;-74
2021/05/25 04:53:02;;;;;;;5.10;2.20;;;8.70;98.70;;;;;;4984975;28;20054;-73
2021/05/25 04:55:28;;;;;;;5.75;1.88;;;8.70;98.70;;;;;;4985728;28;20393;-74
2021/05/25 04:57:56;;;;;;;5.27;1.73;;;8.70;98.70;;;;;;4987768;28;20045;-73
2021/05/25 05:00:25;;;;;;;6.53;1.60;;;8.70;98.60;;;;;;4982446;28;20638;-74
2021/05/25 05:02:51;;;;;;;3.53;1.60;;;8.80;98.60;;;;;;5000980;28;20048;-74
2021/05/25 05:05:21;;;;;;;6.07;1.57;;;8.70;98.60;;;;;;5004895;28;20034;-74
2021/05/25 05:07:47;;;;;;;6.70;1.53;;;8.80;98.60;;;;;;5005573;28;20378;-74
2021/05/25 05:10:15;;;;;;;4.10;1.60;;;8.80;98.50;;;;;;4982881;28;20049;-74
2021/05/25 05:12:41;;;;;;;3.00;1.70;;;8.80;98.50;;;;;;4973147;28;20090;-73
2021/05/25 05:15:09;;;;;;;4.18;1.50;;;8.80;98.50;;;;;;5003660;28;20644;-74
2021/05/25 05:17:35;;;;;;;4.65;1.92;;;8.80;98.50;;;;;;4983122;28;20037;-73
2021/05/25 05:20:03;;;;;;;4.93;1.87;;;8.80;98.60;;;;;;5000456;28;20041;-74
2021/05/25 05:22:29;;;;;;;5.72;1.80;;;8.80;98.50;;;;;;5006226;28;20038;-73
2021/05/25 05:24:55;;;;;;;4.90;1.83;;;8.80;98.50;;;;;;4982762;28;20049;-73
2021/05/25 05:27:22;;;;;;;8.05;2.47;;;8.90;98.50;;;;;;5004028;28;20038;-73
2021/05/25 05:29:48;;;;;;;6.07;2.00;;;8.90;98.50;;;;;;5018726;28;20091;-73
2021/05/25 05:32:14;;;;;;;7.50;2.20;;;8.90;98.40;;;;;;5007769;28;20034;-74
2021/05/25 05:34:40;;;;;;;6.23;2.43;;;8.90;98.70;;;;;;4984260;28;20268;-73
2021/05/25 05:37:06;;;;;;;8.33;1.97;;;8.90;98.30;;;;;;4987345;28;20504;-73
2021/05/25 05:39:32;;;;;;;5.23;2.20;;;8.90;98.20;;;;;;4987565;28;20464;-73
2021/05/25 05:41:58;;;;;;;4.63;1.85;;;8.90;98.20;;;;;;5011120;28;20050;-73
2021/05/25 05:44:24;;;;;;;5.10;2.00;;;8.90;98.30;;;;;;5006926;28;20512;-72
2021/05/25 05:46:50;;;;;;;4.03;1.90;;;8.90;98.20;;;;;;5009402;28;20049;-72
2021/05/25 05:49:16;;;;;;;5.60;2.20;;;8.90;98.20;;;;;;4955198;28;20507;-72
2021/05/25 05:51:42;;;;;;;8.77;2.50;;;8.80;98.20;;;;;;4973560;28;20034;-72
2021/05/25 05:54:08;;;;;;;6.07;2.23;;;8.80;98.20;;;;;;5001778;28;20746;-72
2021/05/25 05:56:35;;;;;;;5.87;2.33;;;8.90;98.30;;;;;;4988551;28;20536;-73
2021/05/25 05:59:00;;;;;;;5.27;2.33;;;8.80;98.30;;;;;;4985629;28;20049;-73
2021/05/25 06:01:26;;;;;;;6.00;2.20;;;8.90;98.40;;;;;;4992350;28;20042;-73
2021/05/25 06:03:52;;;;;;;3.47;1.90;;;8.90;98.40;;;;;;5009745;28;20386;-73
2021/05/25 06:06:19;;;;;;;5.93;2.15;;;9.00;98.40;;;;;;4971723;28;20123;-73
2021/05/25 06:08:44;;;;;;;5.80;2.37;;;9.10;98.40;;;;;;4990159;28;20492;-73
2021/05/25 06:11:10;;;;;;;4.70;2.00;;;9.00;98.40;;;;;;4993268;28;20053;-73
2021/05/25 06:13:36;;;;;;;3.92;2.08;;;9.10;98.40;;;;;;5004692;28;20488;-73
2021/05/25 06:16:03;;;;;;;4.47;1.90;;;9.10;98.30;;;;;;4998409;28;20132;-73
2021/05/25 06:18:34;;;;;;;4.87;1.43;;;9.10;98.40;;;;;;5005771;28;20042;-73
2021/05/25 06:21:01;;;;;;;4.32;1.73;;;9.10;98.30;;;;;;5007960;28;20493;-73
2021/05/25 06:23:28;;;;;;;2.57;1.30;;;9.10;98.20;;;;;;4994828;28;20045;-72
2021/05/25 06:25:55;;;;;;;4.38;1.63;;;9.10;98.20;;;;;;5001958;28;20038;-73
2021/05/25 06:28:22;;;;;;;4.50;2.05;;;9.10;98.20;;;;;;4993854;28;20173;-74
2021/05/25 06:30:47;;;;;;;4.07;2.17;;;9.10;98.20;;;;;;5018715;28;20053;-73
2021/05/25 06:33:13;;;;;;;7.30;2.47;;;9.10;98.20;;;;;;4971082;28;20472;-72
2021/05/25 06:35:42;;;;;;;6.90;2.70;;;9.00;98.20;;;;;;4996856;28;20081;-73
2021/05/25 06:38:08;;;;;;;6.65;2.80;;;9.10;98.30;;;;;;4997202;28;20131;-73
2021/05/25 06:40:34;;;;;;;7.83;3.73;;;9.00;98.30;;;;;;4979790;28;20069;-73
2021/05/25 06:43:00;;;;;;;8.10;3.60;;;9.10;98.40;;;;;;4989761;28;20038;-73
2021/05/25 06:45:26;;;;;;;9.03;3.97;;;9.10;98.40;;;;;;5010996;28;20034;-73
2021/05/25 06:47:53;;;;;;;6.70;4.03;;;9.10;98.40;;;;;;5007910;28;20049;-73
2021/05/25 06:50:20;;;;;;;5.90;4.30;;;9.20;98.50;;;;;;5022693;28;20100;-73
2021/05/25 06:52:46;;;;;;;6.65;4.28;;;9.20;98.50;;;;;;5005380;28;20129;-73
2021/05/25 06:55:13;;;;;;;7.93;4.10;;;9.20;98.50;;;;;;4974043;28;20084;-73
2021/05/25 06:57:39;;;;;;;5.73;4.10;;;9.20;98.50;;;;;;4988169;28;20041;-73
2021/05/25 07:00:07;;;;;;;6.63;3.90;;;9.30;98.50;;;;;;4970537;28;20046;-73
2021/05/25 07:02:34;;;;;;;5.70;3.00;;;9.30;98.50;;;;;;5007131;28;20042;-73
2021/05/25 07:05:00;;;;;;;5.83;3.13;;;9.30;98.50;;;;;;4985361;28;20041;-73
2021/05/25 07:07:26;;;;;;;5.33;2.93;;;9.30;98.40;;;;;;5021690;28;20041;-73
2021/05/25 07:09:52;;;;;;;5.20;2.87;;;9.40;98.40;;;;;;4987472;28;20050;-73
2021/05/25 07:12:18;;;;;;;4.90;3.30;;;9.40;98.30;;;;;;5002248;28;20092;-74
2021/05/25 07:14:45;;;;;;;5.47;3.03;;;9.40;98.20;;;;;;4966254;28;20125;-73
2021/05/25 07:17:12;;;;;;;5.53;3.50;;;9.40;98.10;;;;;;4988978;28;20137;-73
2021/05/25 07:19:38;;;;;;;5.90;3.80;;;9.40;98.00;;;;;;4998960;28;20455;-73
2021/05/25 07:22:04;;;;;;;6.27;3.70;;;9.40;98.10;;;;;;5002585;28;20042;-73
2021/05/25 07:24:31;;;;;;;6.20;4.43;;;9.40;98.20;;;;;;5006059;28;20061;-72
2021/05/25 07:26:58;;;;;;;7.53;5.60;;;9.50;98.10;;;;;;4987776;28;20045;-73
2021/05/25 07:29:24;;;;;;;9.60;7.25;;;9.50;98.10;;;;;;5005533;28;20045;-73
2021/05/25 07:31:50;;;;;;;10.35;8.32;;;9.50;98.10;;;;;;4965093;28;20069;-73
2021/05/25 07:34:16;;;;;;;7.82;6.50;;;9.60;98.10;;;;;;4962383;28;20048;-73
2021/05/25 07:36:42;;;;;;;8.77;6.45;;;9.60;98.10;;;;;;5009254;28;20041;-73
2021/05/25 07:39:08;;;;;;;9.55;7.50;;;9.60;97.90;;;;;;5005130;28;20397;-73
2021/05/25 07:41:35;;;;;;;11.57;9.00;;;9.60;97.90;;;;;;5004380;28;20042;-73
2021/05/25 07:44:01;;;;;;;12.37;9.27;;;9.50;97.80;;;;;;4987500;28;20140;-75
2021/05/25 07:46:31;;;;;;;11.73;9.80;;;9.50;97.80;;;;;;5024854;28;20041;-74
2021/05/25 07:48:58;;;;;;;;;;;9.40;97.90;;;;;;5008761;28;20145;-73
2021/05/25 07:51:24;;;;;;;15.57;11.70;;;9.40;97.80;;;;;;5019626;28;19948;-73
2021/05/25 07:53:50;;;;;;;14.97;11.77;;;9.40;97.70;;;;;;4988278;28;20497;-74
2021/05/25 07:56:16;;;;;;;16.30;13.63;;;9.40;97.80;;;;;;5008297;28;20073;-73
2021/05/25 07:58:42;;;;;;;17.67;14.77;;;9.30;97.90;;;;;;5005064;28;20065;-73
2021/05/25 08:01:09;;;;;;;20.40;17.23;;;9.30;98.00;;;;;;5014773;28;20572;-73
2021/05/25 08:03:35;;;;;;;19.93;16.53;;;9.40;98.10;;;;;;5007188;28;20124;-75
2021/05/25 08:06:01;;;;;;;24.48;18.52;;;9.30;98.00;;;;;;4962678;28;20113;-74
2021/05/25 08:08:30;;;;;;;19.33;16.52;;;9.30;98.10;;;;;;4988990;28;20046;-77
2021/05/25 08:10:56;;;;;;;19.13;15.67;;;9.30;98.30;;;;;;4990821;28;20046;-77
2021/05/25 08:13:22;;;;;;;19.20;15.97;;;9.30;98.30;;;;;;4986648;28;20045;-77
2021/05/25 08:15:49;;;;;;;15.40;13.13;;;9.40;98.40;;;;;;5006995;28;20045;-78
2021/05/25 08:18:46;;;;;;;9.93;8.90;;;9.40;98.40;;;;;;4972219;28;20292;-77
2021/05/25 08:21:04;;;;;;;12.45;9.70;;;9.50;98.10;;;;;;4982677;28;20072;-77
2021/05/25 08:23:30;;;;;;;9.50;8.50;;;9.50;98.10;;;;;;5007501;28;20472;-77
2021/05/25 08:25:56;;;;;;;10.93;8.15;;;9.60;98.10;;;;;;4988498;28;20096;-79
2021/05/25 08:28:22;;;;;;;7.88;6.57;;;9.70;98.20;;;;;;4983880;28;20042;-79
2021/05/25 08:30:48;;;;;;;6.97;5.50;;;9.80;98.10;;;;;;4987524;28;20038;-77
2021/05/25 08:33:16;;;;;;;5.38;3.90;;;9.90;98.00;;;;;;5011055;28;20471;-80
2021/05/25 08:35:46;;;;;;;5.40;3.90;;;9.90;97.80;;;;;;5005470;28;20041;-79
2021/05/25 08:38:15;;;;;;;5.93;3.08;;;10.00;97.60;;;;;;5004191;28;20042;-79
2021/05/25 08:40:42;;;;;;;4.07;2.83;;;10.20;97.60;;;;;;4985676;28;20039;-79
2021/05/25 08:43:08;;;;;;;4.70;3.30;;;10.30;97.10;;;;;;4991124;28;20100;-78
2021/05/25 08:45:34;;;;;;;4.05;3.20;;;10.40;97.00;;;;;;4988555;28;20042;-78
2021/05/25 08:48:00;;;;;;;5.55;3.55;;;10.40;96.90;;;;;;5003556;28;20100;-77
2021/05/25 08:50:29;;;;;;;5.45;3.30;;;10.50;96.90;;;;;;4996259;28;20043;-77
2021/05/25 08:53:01;;;;;;;4.97;3.55;;;10.60;97.10;;;;;;4972837;28;20044;-79
2021/05/25 08:55:29;;;;;;;2.72;2.17;;;10.80;97.10;;;;;;4992988;28;20043;-79
2021/05/25 08:57:56;;;;;;;4.13;2.42;;;11.10;96.80;;;;;;5009967;28;20038;-80
2021/05/25 09:00:22;;;;;;;6.47;4.00;;;11.20;96.30;;;;;;5000884;28;20050;-79
2021/05/25 09:02:48;;;;;;;3.13;2.63;;;11.50;96.70;;;;;;5014793;28;20496;-81
2021/05/25 09:05:20;;;;;;;3.70;1.45;;;11.90;96.70;;;;;;4992671;28;20447;-79
2021/05/25 09:07:50;;;;;;;2.55;1.42;;;12.00;95.50;;;;;;5002728;28;20414;-80
2021/05/25 09:10:23;;;;;;;2.05;1.23;;;12.00;95.30;;;;;;5004484;28;20034;-80
2021/05/25 09:12:51;;;;;;;2.30;1.00;;;12.00;94.80;;;;;;4999136;28;20400;-82
2021/05/25 09:15:43;;;;;;;1.00;0.70;;;11.90;94.50;;;;;;4990704;28;20045;-80
2021/05/25 09:18:09;;;;;;;2.05;1.02;;;11.80;93.70;;;;;;5015774;28;20396;-81
2021/05/25 09:20:47;;;;;;;3.85;1.50;;;11.70;93.70;;;;;;5028800;28;20492;-81
2021/05/25 09:23:20;;;;;;;1.48;1.13;;;11.60;93.80;;;;;;5012085;28;20052;-82
2021/05/25 09:25:52;;;;;;;14.38;3.53;;;11.50;94.10;;;;;;5008527;28;20045;-80
2021/05/25 09:28:18;;;;;;;3.70;1.50;;;11.50;94.60;;;;;;4992349;28;20037;-81
2021/05/25 09:30:48;;;;;;;41.58;10.88;;;11.60;94.80;;;;;;4990666;28;20030;-80
2021/05/25 09:33:16;;;;;;;8.02;2.78;;;11.60;94.90;;;;;;5002288;28;20041;-80
2021/05/25 09:35:45;;;;;;;2.78;1.67;;;11.70;95.10;;;;;;4998955;28;20048;-75
2021/05/25 09:38:16;;;;;;;2.38;1.30;;;11.70;95.00;;;;;;5011609;28;20172;-75
2021/05/25 09:40:46;;;;;;;6.70;2.10;;;11.80;95.20;;;;;;5007505;28;20048;-74
2021/05/25 09:43:29;;;;;;;2.65;1.08;;;11.80;95.30;;;;;;5006797;28;20351;-75
2021/05/25 09:45:55;;;;;;;2.55;1.10;;;11.80;94.80;;;;;;5011423;28;20053;-78
2021/05/25 09:48:26;;;;;;;2.17;1.20;;;11.60;94.30;;;;;;4991350;28;20397;-74
2021/05/25 09:50:55;;;;;;;3.15;1.08;;;11.50;94.20;;;;;;5006134;28;20126;-72
2021/05/25 09:53:31;;;;;;;2.13;1.50;;;11.30;94.50;;;;;;4987650;28;20252;-74
2021/05/25 09:56:03;;;;;;;3.05;1.92;;;11.20;94.80;;;;;;4972238;28;20049;-73
2021/05/25 09:58:32;;;;;;;6.40;2.22;;;11.10;95.00;;;;;;4983961;28;20133;-73
2021/05/25 10:01:00;;;;;;;4.32;2.28;;;11.00;95.20;;;;;;4977874;28;20097;-72
2021/05/25 10:03:27;;;;;;;3.65;1.92;;;11.00;95.50;;;;;;4992655;28;20049;-73
2021/05/25 10:05:54;;;;;;;4.10;2.20;;;11.00;95.70;;;;;;4973580;28;20038;-73
2021/05/25 10:08:23;;;;;;;3.83;2.00;;;11.10;95.90;;;;;;5001444;28;20070;-73
2021/05/25 10:10:55;;;;;;;3.95;2.13;;;11.10;95.90;;;;;;4987268;28;20060;-73
2021/05/25 10:13:23;;;;;;;3.13;2.35;;;11.10;95.90;;;;;;5002688;28;20054;-73
2021/05/25 10:15:50;;;;;;;4.80;2.58;;;11.10;95.90;;;;;;5002213;28;20042;-73
2021/05/25 10:21:00;;;;;;;4.80;2.55;;;11.20;96.00;;;;;;4987764;28;20049;-73
2021/05/25 10:23:32;;;;;;;;;;;11.20;96.00;;;;;;4991367;28;20037;-73
2021/05/25 10:26:00;;;;;;;3.28;1.80;;;11.10;95.90;;;;;;5006475;28;20016;-73
2021/05/25 10:28:26;;;;;;;3.60;1.60;;;11.10;95.60;;;;;;4991962;28;20400;-73
2021/05/25 10:30:56;;;;;;;4.00;1.55;;;11.00;95.40;;;;;;4996822;28;20425;-73
2021/05/25 10:33:23;;;;;;;2.95;1.48;;;10.90;95.60;;;;;;4994624;28;20214;-73
2021/05/25 10:35:55;;;;;;;3.13;1.35;;;10.90;95.60;;;;;;4995265;28;20034;-73
2021/05/25 10:38:27;;;;;;;2.72;1.80;;;10.80;95.10;;;;;;4998819;28;20030;-77
2021/05/25 10:40:57;;;;;;;4.13;2.13;;;10.70;95.10;;;;;;4994326;28;20049;-77
2021/05/25 10:43:33;;;;;;;6.05;2.28;;;10.70;95.60;;;;;;4993373;28;20118;-77
2021/05/25 10:46:11;;;;;;;6.20;2.13;;;10.70;95.70;;;;;;4994779;28;20042;-78
2021/05/25 10:49:30;;;;;;;2.45;1.77;;;10.70;95.70;;;;;;4996706;28;20400;-73
2021/05/25 10:51:52;;;;;;;3.75;1.60;;;10.70;95.10;;;;;;4993410;28;20417;-74
2021/05/25 10:54:42;;;;;;;2.47;1.70;;;10.70;94.40;;;;;;4991522;28;20064;-73
2021/05/25 10:57:37;;;;;;;4.72;2.05;;;10.50;94.50;;;;;;4977741;28;20092;-73
2021/05/25 11:00:06;;;;;;;3.78;1.70;;;10.30;95.20;;;;;;4976757;28;20068;-74
2021/05/25 11:02:52;;;;;;;5.38;2.17;;;10.20;95.60;;;;;;5001686;28;20563;-72
2021/05/25 11:05:35;;;;;;;2.63;1.48;;;10.10;96.10;;;;;;5024248;28;20137;-73
2021/05/25 11:08:10;;;;;;;2.92;1.50;;;10.10;96.00;;;;;;5026591;28;20052;-73
2021/05/25 11:10:38;;;;;;;3.47;1.10;;;10.10;95.90;;;;;;5000893;28;20058;-75
2021/05/25 11:13:21;;;;;;;3.67;1.90;;;10.10;95.20;;;;;;5013700;28;20148;-74
2021/05/25 11:18:47;;;;;;;4.95;1.80;;;9.80;95.90;;;;;;5009831;28;20072;-74
2021/05/25 11:22:02;;;;;;;3.17;1.45;;;9.80;96.10;;;;;;4994972;28;20448;-75
2021/05/25 11:24:33;;;;;;;3.88;1.52;;;9.70;96.10;;;;;;5013388;28;20465;-74
2021/05/25 11:27:07;;;;;;;3.95;1.58;;;9.70;96.20;;;;;;4994703;28;20064;-74
2021/05/25 11:29:39;;;;;;;2.00;1.00;;;9.60;96.30;;;;;;5020748;28;20057;-74
2021/05/25 11:32:16;;;;;;;3.45;1.40;;;9.60;96.40;;;;;;5038573;28;20038;-74
2021/05/25 11:34:43;;;;;;;3.42;1.58;;;9.60;96.60;;;;;;5018812;28;20033;-74
2021/05/25 11:37:13;;;;;;;3.25;1.50;;;9.60;96.60;;;;;;5026614;28;20171;-74
2021/05/25 11:39:39;;;;;;;3.90;1.33;;;9.70;96.80;;;;;;5026325;28;20116;-74
2021/05/25 11:42:13;;;;;;;3.63;1.40;;;9.80;96.90;;;;;;4992731;28;20551;-74
2021/05/25 11:44:44;;;;;;;3.67;1.50;;;9.80;96.90;;;;;;5015948;28;20041;-74
2021/05/25 11:47:11;;;;;;;3.08;1.95;;;9.90;96.90;;;;;;5006975;28;20061;-75
2021/05/25 11:49:43;;;;;;;2.15;1.50;;;10.00;97.30;;;;;;5022263;28;20042;-74
2021/05/25 11:52:19;;;;;;;3.85;1.92;;;10.10;97.00;;;;;;5007640;28;20192;-79
2021/05/25 11:54:46;;;;;;;4.30;1.67;;;10.20;97.10;;;;;;5007392;28;20037;-79
2021/05/25 11:57:44;;;;;;;4.70;1.92;;;10.30;97.00;;;;;;5007120;28;20053;-79
2021/05/25 12:00:27;;;;;;;3.10;1.77;;;10.30;96.80;;;;;;5025400;28;20416;-79
2021/05/25 12:02:56;;;;;;;3.35;2.10;;;10.40;96.90;;;;;;5019079;28;20556;-79
2021/05/25 12:05:21;;;;;;;3.67;1.88;;;10.40;96.90;;;;;;5001915;28;20125;-78
2021/05/25 12:07:50;;;;;;;4.20;2.10;;;10.50;96.90;;;;;;4987425;28;20124;-78
2021/05/25 12:10:30;;;;;;;5.53;2.47;;;10.50;96.90;;;;;;5007534;28;20132;-78
2021/05/25 12:13:13;;;;;;;4.70;1.90;;;10.60;96.60;;;;;;5007228;28;20041;-79
2021/05/25 12:15:43;;;;;;;4.15;2.15;;;10.70;96.80;;;;;;5004153;28;20038;-79
2021/05/25 12:18:11;;;;;;;4.97;1.95;;;10.80;96.60;;;;;;5005071;28;20096;-78
2021/05/25 12:20:45;;;;;;;3.47;2.10;;;10.90;96.70;;;;;;4987701;28;20575;-78
2021/05/25 12:23:17;;;;;;;3.85;2.60;;;11.00;96.60;;;;;;4989953;28;20389;-78
2021/05/25 12:25:50;;;;;;;4.22;1.88;;;11.20;96.60;;;;;;4984899;28;20045;-79
2021/05/25 12:28:26;;;;;;;4.45;2.30;;;11.30;96.50;;;;;;5002969;28;20249;-79
2021/05/25 12:30:53;;;;;;;4.07;2.28;;;11.30;95.90;;;;;;5008285;28;20064;-78
2021/05/25 12:33:22;;;;;;;3.13;1.85;;;11.40;95.80;;;;;;5002648;28;20100;-79
2021/05/25 12:35:49;;;;;;;6.47;2.33;;;11.40;95.80;;;;;;5006647;28;20049;-79
2021/05/25 12:38:20;;;;;;;4.55;2.20;;;11.50;95.70;;;;;;5003055;28;20084;-79
2021/05/25 12:40:59;;;;;;;4.90;2.13;;;11.60;95.90;;;;;;5003372;28;20038;-79
2021/05/25 12:43:28;;;;;;;3.70;1.70;;;11.90;96.30;;;;;;5004417;28;20156;-79
2021/05/25 12:46:05;;;;;;;4.68;1.83;;;12.10;96.30;;;;;;5017645;28;20041;-79
2021/05/25 12:48:36;;;;;;;4.28;1.70;;;12.40;95.70;;;;;;4976259;28;20038;-79
2021/05/25 12:51:01;;;;;;;3.50;1.52;;;12.40;94.70;;;;;;4987453;28;20128;-78
2021/05/25 12:53:31;;;;;;;3.15;1.83;;;12.30;94.40;;;;;;5003833;28;20126;-82
2021/05/25 12:55:59;;;;;;;4.57;2.28;;;12.20;94.40;;;;;;4987437;28;20176;-79
2021/05/25 12:58:46;;;;;;;3.28;2.00;;;12.20;94.60;;;;;;4981550;28;20033;-81
2021/05/25 13:01:32;;;;;;;2.85;1.70;;;12.30;94.40;;;;;;5001937;28;20527;-74
2021/05/25 13:04:07;;;;;;;2.55;1.48;;;12.30;94.50;;;;;;5026270;28;20050;-74